Avon, Indiana
Current Conditions -  °F | °C
As of 7:53 PM on Friday 28 Nov 2014 (Local Time) from KEYE Reporting Station
Clear Clear  
Wind Chill: -3°   Ceiling: Unl
Heat Index:   Visibility: 10mi
Dew Point: -6°   Wind: 6mph
Humidity: 66%   Direction: 160°SSE
Pressure: 30.07"   Gusts: NA
Location:  39.76°N, 86.4°W
Report Text: KEYE 290053Z AUTO 16005KT 10SM CLR 00/M06 A3007 RMK AO2 SLP191 T00001056
Loading
Personal Weather Stations






























Interactive Weather Map New forecast layout! Learn more

10-Day Weather Forecast

Advertisements
Track Severe Weather on mobile